Latest Weather Observations for Mount Lofty

IDS60901

Issued at 7:21 am CDT Saturday 16 October 2021 (issued every 10 minutes, with the page automatically refreshed every 10 minutes)

About weather observations | Map of Adelaide area stations | Latest observations for Adelaide area | Other Formats
Station Details ID: 023842 Name: MOUNT LOFTY Lat: -34.98 Lon: 138.71 Height: 685.0 m
Data from the previous 72 hours. | See also: Recent months at Mount Lofty
Date/Time
CDT
Temp
°C
App
Temp
°C
Dew
Point
°C
Rel
Hum
%
Delta-T
°C
Wind Press
QNH
hPa
Press
MSL
hPa
Rain since
9am
mm
Dir  Spd
km/h
Gust
km/h
Spd
kts
Gust
kts
16/07:00am 6.3 3.9 5.1 92 0.5 WSW 7 17 4 9 - - 0.2
16/06:30am 6.2 3.7 4.8 91 0.6 WSW 7 15 4 8 - - 0.2
16/06:00am 6.2 3.7 4.5 89 0.8 WSW 7 17 4 9 - - 0.2
16/05:30am 6.2 3.3 4.5 89 0.8 WSW 9 17 5 9 - - 0.2
16/05:00am 6.3 3.4 4.9 91 0.6 SW 9 20 5 11 - - 0.2
16/04:30am 6.3 3.5 5.3 93 0.5 WSW 9 22 5 12 - - 0.2
16/04:00am 6.4 3.5 4.7 89 0.8 WSW 9 20 5 11 - - 0.2
16/03:30am 6.5 3.9 4.3 86 1.0 WSW 7 13 4 7 - - 0.2
16/03:00am 6.6 4.1 4.8 88 0.8 W 7 15 4 8 - - 0.2
16/02:30am 6.7 4.2 5.0 89 0.8 WSW 7 17 4 9 - - 0.2
16/02:00am 6.7 4.0 5.5 92 0.6 WSW 9 20 5 11 - - 0.2
16/01:30am 6.8 3.6 5.1 89 0.8 WSW 11 30 6 16 - - 0.2
16/01:00am 6.5 4.2 5.8 95 0.3 WSW 7 22 4 12 - - 0.2
16/12:30am 6.9 4.8 6.5 97 0.2 WSW 7 17 4 9 - - 0.2
16/12:00am 6.8 4.6 6.4 97 0.2 WSW 7 17 4 9 - - 0.2
 
Date/Time
CDT
Temp
°C
App
Temp
°C
Dew
Point
°C
Rel
Hum
%
Delta-T
°C
Wind Press
QNH
hPa
Press
MSL
hPa
Rain since
9am
mm
Dir  Spd
km/h
Gust
km/h
Spd
kts
Gust
kts
15/11:30pm 7.0 4.5 6.6 97 0.2 SW 9 17 5 9 - - 0.2
15/11:00pm 7.2 4.7 6.6 96 0.3 SW 9 22 5 12 - - 0.2
15/10:30pm 7.4 5.3 6.7 95 0.3 SW 7 17 4 9 - - 0.2
15/10:00pm 7.6 5.5 6.5 93 0.5 WSW 7 17 4 9 - - 0.2
15/09:30pm 7.7 5.2 6.5 92 0.6 WSW 9 15 5 8 - - 0.2
15/09:00pm 7.7 5.1 6.2 90 0.7 WSW 9 28 5 15 - - 0.2
15/08:30pm 7.8 5.3 6.4 91 0.7 WSW 9 20 5 11 - - 0.2
15/08:00pm 7.8 5.6 6.4 91 0.7 SW 7 20 4 11 - - 0.2
15/07:30pm 8.0 5.4 6.1 88 0.9 WSW 9 22 5 12 - - 0.2
15/07:00pm 8.7 6.6 6.8 88 0.9 WSW 7 17 4 9 - - 0.2
15/06:30pm 8.6 6.6 6.9 89 0.8 SW 7 17 4 9 - - 0.2
15/06:00pm 9.0 6.3 7.3 89 0.8 WSW 11 22 6 12 - - 0.2
15/05:30pm 9.6 7.5 6.5 81 1.5 WSW 7 20 4 11 - - 0.2
15/05:00pm 10.4 8.1 7.3 81 1.5 WSW 9 22 5 12 - - 0.2
15/04:30pm 9.3 7.2 6.7 84 1.3 SW 7 17 4 9 - - 0.2
15/04:00pm 8.9 7.1 8.0 94 0.4 SW 7 19 4 10 - - 0.2
15/03:30pm 9.2 7.0 7.8 91 0.7 WSW 9 24 5 13 - - 0.2
15/03:00pm 10.2 8.0 7.8 85 1.2 WSW 9 20 5 11 - - 0.2
15/02:30pm 10.7 8.1 7.6 81 1.6 WSW 11 20 6 11 - - 0.2
15/02:00pm 11.1 8.4 7.2 77 1.9 WSW 11 20 6 11 - - 0.2
15/01:30pm 10.3 8.7 8.6 89 0.9 WSW 7 17 4 9 - - 0.2
15/01:00pm 10.9 8.7 8.0 82 1.5 WSW 9 19 5 10 - - 0.2
15/12:30pm 10.1 7.6 6.4 78 1.8 SSW 9 17 5 9 - - 0.2
15/12:00pm 9.6 8.2 8.7 94 0.5 SW 6 17 3 9 - - 0.2
15/11:30am 9.3 7.0 7.3 87 1.0 SW 9 17 5 9 - - 0.0
15/11:00am 8.6 6.7 7.5 93 0.5 SSE 7 15 4 8 - - 0.0
15/10:30am 8.4 6.6 7.8 96 0.3 S 7 15 4 8 - - 0.0
15/10:00am 8.0 6.1 7.6 97 0.2 S 7 19 4 10 - - 0.0
15/09:30am 7.5 5.6 7.4 99 0.0 SSE 7 22 4 12 - - 0.0
15/09:00am 6.9 4.5 6.8 99 0.0 SE 9 20 5 11 - - 28.6
15/08:30am 5.8 2.7 5.7 99 0.0 SE 11 22 6 12 - - 28.6
15/08:00am 5.8 2.4 5.7 99 0.0 ESE 13 24 7 13 - - 28.6
15/07:30am 5.7 1.9 5.6 99 0.0 ESE 15 26 8 14 - - 28.6
15/07:00am 6.0 2.6 5.9 99 0.0 ESE 13 24 7 13 - - 28.6
15/06:30am 6.3 3.3 6.2 99 0.0 SE 11 22 6 12 - - 28.6
15/06:00am 6.6 4.5 6.5 99 0.0 SE 7 17 4 9 - - 28.6
15/05:30am 6.5 4.5 6.4 99 0.0 SE 6 11 3 6 - - 28.6
15/05:00am 6.9 5.0 6.8 99 0.0 SSW 6 9 3 5 - - 28.6
15/04:30am 7.0 5.1 6.9 99 0.0 SW 6 15 3 8 - - 28.6
15/04:00am 7.0 4.6 6.9 99 0.0 WSW 9 20 5 11 - - 28.6
15/03:30am 7.0 3.8 6.9 99 0.0 SW 13 28 7 15 - - 28.6
15/03:00am 7.7 5.1 7.6 99 0.0 SW 11 20 6 11 - - 28.4
15/02:30am 7.7 4.7 7.6 99 0.0 WSW 13 26 7 14 - - 22.0
15/02:00am 7.6 4.6 7.5 99 0.0 SW 13 28 7 15 - - 20.8
15/01:30am 7.9 4.5 7.8 99 0.0 WSW 15 43 8 23 - - 20.8
15/01:00am 6.7 4.2 6.6 99 0.0 WNW 9 24 5 13 - - 18.0
15/12:30am 5.7 1.9 5.6 99 0.0 NW 15 22 8 12 - - 12.2
15/12:00am 5.7 3.0 5.6 99 0.0 WNW 9 20 5 11 - - 8.2
 
Date/Time
CDT
Temp
°C
App
Temp
°C
Dew
Point
°C
Rel
Hum
%
Delta-T
°C
Wind Press
QNH
hPa
Press
MSL
hPa
Rain since
9am
mm
Dir  Spd
km/h
Gust
km/h
Spd
kts
Gust
kts
14/11:30pm 6.2 3.9 5.9 98 0.1 W 7 15 4 8 - - 5.6
14/11:00pm 6.1 2.7 5.7 97 0.2 W 13 35 7 19 - - 4.0
14/10:30pm 6.7 5.0 6.0 95 0.3 W 4 9 2 5 - - 1.2
14/10:00pm 6.9 4.8 6.0 94 0.4 W 6 13 3 7 - - 0.2
14/09:30pm 7.0 4.9 5.9 93 0.5 W 6 11 3 6 - - 0.2
14/09:00pm 7.2 5.0 6.0 92 0.6 WSW 7 15 4 8 - - 0.2
14/08:30pm 7.2 5.1 5.7 90 0.7 SW 6 13 3 7 - - 0.2
14/08:00pm 7.2 4.8 5.3 88 0.9 SW 7 13 4 7 - - 0.2
14/07:30pm 7.6 5.2 5.1 84 1.2 SW 7 13 4 7 - - 0.2
14/07:00pm 8.6 6.3 5.5 81 1.5 SW 7 17 4 9 - - 0.2
14/06:30pm 8.8 6.7 6.8 87 1.0 SSW 7 15 4 8 - - 0.2
14/06:00pm 9.3 7.1 6.2 81 1.5 SSW 7 15 4 8 - - 0.2
14/05:30pm 9.8 7.9 6.7 81 1.5 S 6 13 3 7 - - 0.2
14/05:00pm 9.9 8.0 6.6 80 1.6 SSE 6 13 3 7 - - 0.2
14/04:30pm 9.1 7.2 6.7 85 1.2 S 6 17 3 9 - - 0.2
14/04:00pm 9.1 6.7 6.9 86 1.1 SSW 9 17 5 9 - - 0.2
14/03:30pm 8.6 6.9 7.5 93 0.5 SW 6 11 3 6 - - 0.2
14/03:00pm 8.0 6.1 6.5 90 0.7 WSW 6 11 3 6 - - 0.2
14/02:30pm 8.7 7.1 6.2 84 1.2 WSW 4 9 2 5 - - 0.2
14/02:00pm 9.3 8.3 5.7 78 1.7 CALM 0 2 0 1 - - 0.2
14/01:30pm 9.6 7.8 5.2 74 2.1 ESE 4 7 2 4 - - 0.2
14/01:00pm 8.7 7.0 5.8 82 1.4 SSE 4 9 2 5 - - 0.2
14/12:30pm 8.8 6.7 5.9 82 1.4 SSE 6 13 3 7 - - 0.2
14/12:00pm 9.1 7.2 6.5 84 1.3 E 6 13 3 7 - - 0.2
14/11:30am 8.8 6.6 6.1 83 1.3 ENE 7 17 4 9 - - 0.2
14/11:00am 7.6 5.6 6.1 90 0.7 ESE 6 15 3 8 - - 0.2
14/10:30am 6.9 4.8 5.7 92 0.6 NE 6 19 3 10 - - 0.0
14/10:00am 6.5 4.4 5.6 94 0.4 E 6 24 3 13 - - 0.0
14/09:30am 6.8 4.8 6.4 97 0.2 ENE 6 15 3 8 - - 0.0
14/09:00am 5.6 3.4 5.3 98 0.1 E 6 11 3 6 - - 7.2
14/08:30am 5.5 3.6 5.1 97 0.2 ESE 4 9 2 5 - - 6.8
14/08:00am 5.0 3.0 4.6 97 0.2 ESE 4 9 2 5 - - 6.4
14/07:30am 4.9 2.9 4.3 96 0.3 ESE 4 9 2 5 - - 6.4
14/07:00am 4.9 2.8 4.0 94 0.4 NNE 4 7 2 4 - - 6.0
14/06:30am 4.8 1.8 4.1 95 0.3 NNE 9 19 5 10 - - 5.0
14/06:00am 5.0 1.7 4.4 96 0.3 N 11 22 6 12 - - 4.0
14/05:30am 5.4 2.5 4.5 94 0.4 N 9 17 5 9 - - 2.8
14/05:00am 5.7 2.8 4.5 92 0.5 N 9 19 5 10 - - 2.6
14/04:30am 6.0 3.0 4.3 89 0.8 N 9 20 5 11 - - 2.6
14/04:00am 6.3 3.3 4.3 87 0.9 NNW 9 20 5 11 - - 2.6
14/03:30am 6.1 3.2 4.4 89 0.8 N 9 17 5 9 - - 2.6
14/03:00am 6.2 2.9 4.4 88 0.8 N 11 19 6 10 - - 2.4
14/02:30am 5.9 3.0 4.7 92 0.5 N 9 19 5 10 - - 2.4
14/02:00am 5.7 3.1 4.3 91 0.6 N 7 13 4 7 - - 2.4
14/01:30am 6.2 3.5 3.9 85 1.0 NNE 7 17 4 9 - - 2.4
14/01:00am 6.3 3.2 3.8 84 1.1 N 9 15 5 8 - - 2.4
14/12:30am 6.6 3.8 3.4 80 1.4 N 7 13 4 7 - - 2.4
14/12:00am 6.6 3.5 3.4 80 1.4 N 9 17 5 9 - - 2.4
 
Date/Time
CDT
Temp
°C
App
Temp
°C
Dew
Point
°C
Rel
Hum
%
Delta-T
°C
Wind Press
QNH
hPa
Press
MSL
hPa
Rain since
9am
mm
Dir  Spd
km/h
Gust
km/h
Spd
kts
Gust
kts
13/11:30pm 6.6 3.5 3.6 81 1.3 NNW 9 13 5 7 - - 2.4
13/11:00pm 6.5 3.5 4.3 86 1.0 NNW 9 15 5 8 - - 2.4
13/10:30pm 6.4 3.1 4.4 87 0.9 NNW 11 17 6 9 - - 2.4
13/10:00pm 6.0 3.4 4.2 88 0.8 NW 7 11 4 6 - - 2.2
13/09:30pm 5.9 3.2 3.9 87 0.9 NW 7 13 4 7 - - 2.2
13/09:00pm 5.8 3.2 4.1 89 0.8 WNW 7 11 4 6 - - 2.2
13/08:30pm 6.2 3.3 4.5 89 0.8 WNW 9 19 5 10 - - 2.2
13/08:00pm 6.8 3.9 4.8 87 0.9 WNW 9 19 5 10 - - 2.2
13/07:30pm 7.1 3.8 4.8 85 1.1 WNW 11 24 6 13 - - 2.2
13/07:00pm 7.2 3.9 4.3 82 1.3 WNW 11 24 6 13 - - 2.2
13/06:30pm 8.2 3.7 4.0 75 1.9 WNW 17 32 9 17 - - 2.2
13/06:00pm 7.2 3.8 6.0 92 0.6 WNW 13 24 7 13 - - 2.2
13/05:30pm 7.6 3.4 4.0 78 1.6 WNW 15 35 8 19 - - 2.0
13/05:00pm 8.3 4.3 4.9 79 1.6 WNW 15 28 8 15 - - 2.0
13/04:30pm 9.3 4.5 4.9 74 2.1 WNW 19 37 10 20 - - 2.0
13/04:00pm 8.8 3.0 4.2 73 2.1 WNW 24 44 13 24 - - 2.0
13/03:30pm 8.2 3.3 5.1 81 1.4 WNW 20 33 11 18 - - 2.0
13/03:00pm 7.2 3.1 6.1 93 0.5 WNW 17 30 9 16 - - 2.0
13/02:30pm 6.3 2.2 4.1 86 1.0 WNW 15 39 8 21 - - 1.8
13/02:00pm 7.8 3.0 4.6 80 1.5 WNW 19 35 10 19 - - 1.2
13/01:30pm 7.8 3.3 4.4 79 1.5 WNW 17 39 9 21 - - 1.2
13/01:00pm 7.7 3.8 5.3 85 1.1 WNW 15 30 8 16 - - 1.2
13/12:30pm 6.9 3.1 5.8 93 0.5 WNW 15 32 8 17 - - 1.2
13/12:00pm 6.9 2.4 6.0 94 0.4 WNW 19 37 10 20 - - 0.8
13/11:30am 7.0 2.3 5.2 88 0.8 WNW 19 35 10 19 - - 0.0
13/11:00am 6.4 1.8 5.8 96 0.3 WNW 19 35 10 19 - - 0.0
13/10:30am 6.3 1.8 6.0 98 0.1 WNW 19 37 10 20 - - 0.0
13/10:00am 6.0 0.9 5.9 99 0.0 WNW 22 44 12 24 - - 0.0
13/09:30am 6.6 2.2 6.6 100 0.0 WNW 19 28 10 15 - - 0.0
13/09:00am 6.0 0.9 6.0 100 0.0 WNW 22 39 12 21 - - 6.0
13/08:30am 6.5 2.1 6.5 100 0.0 WNW 19 33 10 18 - - 5.2
13/08:00am 6.7 2.3 6.7 100 0.0 NW 19 32 10 17 - - 3.6
13/07:30am 6.7 2.3 6.7 100 0.0 NW 19 39 10 21 - - 2.4

Latest Capital City Observations: Canberra | Sydney | Melbourne | Brisbane | Adelaide | Perth | Hobart | Darwin

Other formats

Comma delimited format used in spreadsheet applications
http://www.bom.gov.au/fwo/IDS60901/IDS60901.95678.axf

JavaScript Object Notation format (JSON) in row-major order
http://www.bom.gov.au/fwo/IDS60901/IDS60901.95678.json

Data quality

Most of these data are generated automatically and are frequently updated. Quality checks on data are not normally performed. It is possible for incorrect values to appear. Refer to information at About Latest Weather Observations and please check the disclaimer before using these data.